Time;durP1;ratioP1;P1;durP2;ratioP2;P2;SDS_P1;SDS_P2;PMS_P1;PMS_P2;Temp;Humidity;BMP_temperature;BMP_pressure;BME280_temperature;BME280_humidity;BME280_pressure;Samples;Min_cycle;Max_cycle;Signal;HPM_P1;HPM_P2
2022/05/15 00:00:52;;;;;;;;;;;;;;;16.44;55.08;100123.41;1088000;54;19927;-81
2022/05/15 00:01:54;;;;;;;;;;;;;;;16.43;54.77;100118.22;1089328;46;19943;-80
2022/05/15 00:02:57;;;;;;;;;;;;;;;16.41;54.88;100121.06;1088273;54;19942;-80
2022/05/15 00:04:01;;;;;;;;;;;;;;;16.41;54.54;100126.47;1088432;54;19949;-80
2022/05/15 00:05:03;;;;;;;;;;;;;;;16.36;55.08;100124.31;1088420;46;19929;-79
2022/05/15 00:06:07;;;;;;;;;;;;;;;16.41;54.78;100126.47;1088380;54;19939;-84
2022/05/15 00:07:08;;;;;;;;;;;;;;;16.42;54.77;100127.31;1088349;54;19958;-81
2022/05/15 00:08:12;;;;;;;;;;;;;;;16.34;54.91;100120.94;1089929;46;19942;-80
2022/05/15 00:09:13;;;;;;;;;;;;;;;16.38;54.85;100113.34;1088368;54;19943;-80
2022/05/15 00:10:17;;;;;;;;;;;;;;;16.36;55.02;100124.31;1088344;54;19994;-83
2022/05/15 00:11:18;;;;;;;;;;;;;;;16.37;54.47;100109.81;1088413;46;19927;-81
2022/05/15 00:12:22;;;;;;;;;;;;;;;16.36;54.64;100120.78;1090275;46;19946;-80
2022/05/15 00:13:24;;;;;;;;;;;;;;;16.33;55.10;100108.50;1087935;54;19939;-80
2022/05/15 00:14:28;;;;;;;;;;;;;;;16.37;54.54;100103.59;1089454;46;19923;-81
2022/05/15 00:15:31;;;;;;;;;;;;;;;16.41;54.66;100106.75;1090208;47;20732;-81
2022/05/15 00:16:37;;;;;;;;;;;;;;;16.44;54.52;100109.06;1088602;46;19983;-82
2022/05/15 00:17:38;;;;;;;;;;;;;;;16.45;54.32;100098.13;1088329;54;19939;-79
2022/05/15 00:18:43;;;;;;;;;;;;;;;16.49;54.32;100106.69;1088399;54;19927;-81
2022/05/15 00:19:44;;;;;;;;;;;;;;;16.50;54.64;100100.25;1089388;46;19927;-82
2022/05/15 00:20:49;;;;;;;;;;;;;;;16.49;54.13;100106.69;1088720;46;19949;-80
2022/05/15 00:21:53;;;;;;;;;;;;;;;16.51;54.33;100104.66;1088702;46;19934;-79
2022/05/15 00:22:54;;;;;;;;;;;;;;;16.49;54.06;100095.88;1088344;54;19923;-79
2022/05/15 00:23:59;;;;;;;;;;;;;;;16.48;54.22;100097.72;1090806;46;19942;-79
2022/05/15 00:25:01;;;;;;;;;;;;;;;16.48;54.00;100095.03;1088284;54;19936;-78
2022/05/15 00:26:05;;;;;;;;;;;;;;;16.50;54.21;100094.88;1089643;46;19943;-79
2022/05/15 00:27:06;;;;;;;;;;;;;;;16.50;54.05;100097.56;1090305;46;19938;-79
2022/05/15 00:28:10;;;;;;;;;;;;;;;16.51;54.16;100104.66;1089189;46;19951;-79
2022/05/15 00:29:11;;;;;;;;;;;;;;;16.51;54.03;100100.06;1088104;54;19942;-78
2022/05/15 00:30:16;;;;;;;;;;;;;;;16.52;53.91;100099.06;1087886;54;19942;-79
2022/05/15 00:31:17;;;;;;;;;;;;;;;16.50;54.10;100102.97;1088378;54;19966;-79
2022/05/15 00:32:23;;;;;;;;;;;;;;;16.45;54.39;100099.97;1088384;54;19983;-80
2022/05/15 00:33:24;;;;;;;;;;;;;;;16.45;54.52;100100.81;1089419;46;19923;-80
2022/05/15 00:34:28;;;;;;;;;;;;;;;16.45;54.58;100103.50;1088284;54;19943;-80
2022/05/15 00:35:30;;;;;;;;;;;;;;;16.43;55.14;100104.72;1091891;46;19943;-80
2022/05/15 00:38:43;;;;;;;;;;;;;;;16.30;57.51;100105.31;1088166;54;19934;-81
2022/05/15 00:39:46;;;;;;;;;;;;;;;16.26;57.43;100096.75;1089075;46;19933;-83
2022/05/15 00:41:00;;;;;;;;;;;;;;;16.16;58.45;100104.22;1088141;54;19950;-83
2022/05/15 00:42:07;;;;;;;;;;;;;;;16.15;58.36;100106.09;1088148;54;19951;-82
2022/05/15 00:43:12;;;;;;;;;;;;;;;16.11;59.71;100103.94;1088048;54;19949;-79
2022/05/15 00:44:14;;;;;;;;;;;;;;;16.10;59.00;100102.25;1088741;46;19934;-82
2022/05/15 00:45:18;;;;;;;;;;;;;;;16.10;58.88;100104.97;1088001;54;19927;-82
2022/05/15 00:46:21;;;;;;;;;;;;;;;16.09;59.26;100098.75;1087615;54;19942;-80
2022/05/15 00:47:28;;;;;;;;;;;;;;;16.10;58.89;100104.97;1087938;54;19933;-80
2022/05/15 00:48:29;;;;;;;;;;;;;;;16.10;59.26;100102.25;1087974;54;19935;-86
2022/05/15 00:49:35;;;;;;;;;;;;;;;16.09;59.63;100104.13;1088049;54;19938;-83
2022/05/15 00:50:37;;;;;;;;;;;;;;;16.06;59.42;100102.63;1088087;54;19991;-81
2022/05/15 00:51:43;;;;;;;;;;;;;;;16.05;59.32;100100.97;1088099;54;19949;-84
2022/05/15 00:52:46;;;;;;;;;;;;;;;16.00;60.19;100111.44;1087669;54;20541;-81
2022/05/15 00:53:52;;;;;;;;;;;;;;;16.00;60.03;100097.13;1088012;54;19926;-82
2022/05/15 00:54:56;;;;;;;;;;;;;;;15.97;59.63;100097.47;1088029;54;19927;-81
2022/05/15 00:55:59;;;;;;;;;;;;;;;16.00;59.51;100099.81;1088025;54;20676;-83
2022/05/15 00:57:05;;;;;;;;;;;;;;;16.01;59.46;100096.94;1088388;54;19942;-83
2022/05/15 00:58:10;;;;;;;;;;;;;;;16.03;59.13;100096.75;1088310;54;19942;-80
2022/05/15 00:59:15;;;;;;;;;;;;;;;16.00;59.71;100097.13;1089929;46;19951;-81
2022/05/15 01:00:17;;;;;;;;;;;;;;;15.99;59.86;100093.56;1088933;46;20636;-81
2022/05/15 01:01:21;;;;;;;;;;;;;;;15.99;59.68;100090.03;1091146;46;19950;-81
2022/05/15 01:02:26;;;;;;;;;;;;;;;15.94;60.02;100087.88;1087820;54;19942;-82
2022/05/15 01:03:29;;;;;;;;;;;;;;;15.90;60.06;100094.66;1088010;54;19949;-84
2022/05/15 01:04:31;;;;;;;;;;;;;;;15.85;59.85;100092.47;1088262;54;19942;-85
2022/05/15 01:05:35;;;;;;;;;;;;;;;15.80;60.16;100091.31;1088273;54;20239;-81
2022/05/15 01:06:43;;;;;;;;;;;;;;;15.68;59.52;100090.88;1088279;54;19943;-79
2022/05/15 01:07:44;;;;;;;;;;;;;;;15.62;60.07;100083.50;1088267;54;19953;-81
2022/05/15 01:08:48;;;;;;;;;;;;;;;15.54;59.95;100085.22;1088247;54;19958;-83
2022/05/15 01:09:50;;;;;;;;;;;;;;;15.51;59.71;100087.41;1088247;54;19943;-79
2022/05/15 01:10:56;;;;;;;;;;;;;;;15.49;59.57;100084.09;1088274;54;19934;-78
2022/05/15 01:12:02;;;;;;;;;;;;;;;15.41;59.22;100076.88;1090559;47;19962;-80
2022/05/15 01:13:04;;;;;;;;;;;;;;;15.37;59.49;100083.63;1088261;54;19949;-81
2022/05/15 01:14:10;;;;;;;;;;;;;;;15.27;59.22;100076.59;1090166;47;19943;-80
2022/05/15 01:15:16;;;;;;;;;;;;;;;15.20;59.07;100078.31;1088277;54;19942;-82
2022/05/15 01:16:22;;;;;;;;;;;;;;;15.21;59.30;100084.56;1088261;54;19943;-80
2022/05/15 01:17:26;;;;;;;;;;;;;;;15.17;59.25;100083.19;1088316;54;19954;-79
2022/05/15 01:18:47;;;;;;;;;;;;;;;15.20;58.95;100085.56;1088206;54;19965;-81
2022/05/15 01:19:50;;;;;;;;;;;;;;;15.26;58.32;100084.84;1087813;54;19942;-78
2022/05/15 01:20:55;;;;;;;;;;;;;;;15.23;58.06;100088.75;1087935;54;19954;-77
2022/05/15 01:22:00;;;;;;;;;;;;;;;15.29;58.03;100087.19;1087741;54;19942;-78
2022/05/15 01:23:01;;;;;;;;;;;;;;;15.32;57.73;100089.53;1088100;54;19942;-79
2022/05/15 01:24:06;;;;;;;;;;;;;;;15.29;57.44;100084.50;1088081;54;19927;-78
2022/05/15 01:25:11;;;;;;;;;;;;;;;15.31;57.42;100078.94;1088238;39;20228;-78
2022/05/15 01:26:15;;;;;;;;;;;;;;;15.33;57.39;100082.31;1087844;54;19986;-79
2022/05/15 01:27:16;;;;;;;;;;;;;;;15.33;57.25;100085.00;1088455;54;19938;-78
2022/05/15 01:28:22;;;;;;;;;;;;;;;15.36;57.06;100080.09;1089524;46;19946;-77
2022/05/15 01:29:27;;;;;;;;;;;;;;;15.40;56.54;100084.09;1088713;54;20493;-78
2022/05/15 01:30:31;;;;;;;;;;;;;;;15.44;56.65;100081.91;1088783;54;19923;-80
2022/05/15 01:31:32;;;;;;;;;;;;;;;15.47;56.33;100086.94;1094049;46;19931;-80
2022/05/15 01:32:43;;;;;;;;;;;;;;;15.48;57.09;100091.31;1088972;46;19927;-78
2022/05/15 01:33:50;;;;;;;;;;;;;;;15.42;58.22;100090.16;1088829;54;19950;-81
2022/05/15 01:34:54;;;;;;;;;;;;;;;15.35;58.83;100089.19;1088785;54;19950;-82
2022/05/15 01:35:58;;;;;;;;;;;;;;;15.30;59.46;100086.19;1088257;54;19943;-78
2022/05/15 01:37:02;;;;;;;;;;;;;;;15.22;60.28;100100.53;1088394;54;19943;-80
2022/05/15 01:38:04;;;;;;;;;;;;;;;15.06;61.09;100093.31;1088567;54;19990;-79
2022/05/15 01:39:08;;;;;;;;;;;;;;;14.92;61.73;100089.50;1088565;54;19941;-78
2022/05/15 01:40:10;;;;;;;;;;;;;;;14.77;62.21;100092.06;1088703;54;20709;-79
2022/05/15 01:41:14;;;;;;;;;;;;;;;14.80;62.06;100090.88;1088785;54;20046;-78
2022/05/15 01:42:15;;;;;;;;;;;;;;;14.71;62.50;100099.97;1088729;54;19943;-80
2022/05/15 01:43:19;;;;;;;;;;;;;;;14.55;63.08;100092.75;1088808;54;19927;-79
2022/05/15 01:44:21;;;;;;;;;;;;;;;14.48;63.55;100096.09;1090233;46;19931;-81
2022/05/15 01:45:24;;;;;;;;;;;;;;;14.41;63.56;100097.78;1088743;54;19950;-79
2022/05/15 01:46:27;;;;;;;;;;;;;;;14.37;63.67;100093.75;1088760;54;19938;-81
2022/05/15 01:47:30;;;;;;;;;;;;;;;14.29;63.84;100099.13;1090284;46;20582;-79
2022/05/15 01:48:31;;;;;;;;;;;;;;;14.26;64.23;100096.78;1088493;54;19942;-79
2022/05/15 01:49:35;;;;;;;;;;;;;;;14.24;64.56;100104.19;1088432;54;19930;-78
2022/05/15 01:50:36;;;;;;;;;;;;;;;14.26;64.07;100094.09;1088412;54;19923;-77
2022/05/15 01:51:43;;;;;;;;;;;;;;;14.23;64.04;100097.13;1088281;54;19950;-79
2022/05/15 01:52:45;;;;;;;;;;;;;;;14.20;64.52;100092.91;1087868;54;19954;-79
2022/05/15 01:53:49;;;;;;;;;;;;;;;14.26;63.87;100097.63;1089586;46;19950;-78
2022/05/15 01:54:50;;;;;;;;;;;;;;;14.13;64.79;100092.75;1090383;46;19954;-78
2022/05/15 01:55:54;;;;;;;;;;;;;;;14.09;64.65;100099.44;1088515;54;19943;-80
2022/05/15 01:56:55;;;;;;;;;;;;;;;14.04;65.06;100097.25;1089489;39;20914;-79
2022/05/15 01:57:59;;;;;;;;;;;;;;;14.00;65.29;100103.13;1088543;54;19927;-79
2022/05/15 01:59:00;;;;;;;;;;;;;;;13.99;65.35;100096.06;1088582;54;19950;-79
2022/05/15 02:00:06;;;;;;;;;;;;;;;13.91;65.77;100098.75;1088650;46;19943;-79
2022/05/15 02:01:07;;;;;;;;;;;;;;;13.87;65.91;100100.94;1088562;54;19927;-79
2022/05/15 02:02:11;;;;;;;;;;;;;;;13.89;66.20;100104.28;1090918;46;19943;-78
2022/05/15 02:03:12;;;;;;;;;;;;;;;13.92;65.59;100103.13;1088696;46;19946;-79
2022/05/15 02:04:16;;;;;;;;;;;;;;;13.93;65.77;100104.81;1088277;47;19926;-80
2022/05/15 02:05:18;;;;;;;;;;;;;;;13.87;66.24;100112.53;1088538;54;19927;-79
2022/05/15 02:06:21;;;;;;;;;;;;;;;13.88;65.92;100105.31;1089587;46;19923;-80
2022/05/15 02:07:25;;;;;;;;;;;;;;;13.89;66.15;100105.13;1090083;46;19946;-79
2022/05/15 02:08:30;;;;;;;;;;;;;;;13.98;65.84;100102.47;1088362;54;19943;-81
2022/05/15 02:09:31;;;;;;;;;;;;;;;14.01;65.47;100097.59;1088656;46;19942;-79
2022/05/15 02:10:35;;;;;;;;;;;;;;;14.06;64.94;100096.25;1088538;54;19954;-79
2022/05/15 02:11:38;;;;;;;;;;;;;;;14.07;64.81;100096.09;1088560;54;19943;-80
2022/05/15 02:12:42;;;;;;;;;;;;;;;14.03;65.29;100097.44;1088523;54;19990;-79
2022/05/15 02:13:43;;;;;;;;;;;;;;;14.02;64.96;100095.75;1088581;54;19942;-79
2022/05/15 02:14:46;;;;;;;;;;;;;;;14.10;65.11;100094.91;1092314;46;19943;-78
2022/05/15 02:15:48;;;;;;;;;;;;;;;14.15;64.49;100097.94;1088551;54;19946;-78
2022/05/15 02:16:51;;;;;;;;;;;;;;;14.22;64.22;100092.75;1090405;46;19947;-78
2022/05/15 02:17:52;;;;;;;;;;;;;;;14.24;64.11;100091.56;1088570;54;19974;-79
2022/05/15 02:18:56;;;;;;;;;;;;;;;14.32;63.87;100096.09;1090042;39;20401;-79
2022/05/15 02:19:57;;;;;;;;;;;;;;;14.39;63.59;100094.41;1088479;54;19923;-78
2022/05/15 02:21:01;;;;;;;;;;;;;;;14.40;63.99;100098.78;1088508;54;19939;-78
2022/05/15 02:22:03;;;;;;;;;;;;;;;14.41;63.67;100100.47;1088545;54;19981;-79
2022/05/15 02:23:09;;;;;;;;;;;;;;;14.44;63.59;100097.47;1088474;54;19938;-78
2022/05/15 02:24:10;;;;;;;;;;;;;;;14.50;63.29;100101.28;1088409;54;19953;-78
2022/05/15 02:25:15;;;;;;;;;;;;;;;14.54;62.87;100097.28;1088006;54;19943;-79
2022/05/15 02:26:17;;;;;;;;;;;;;;;14.53;63.50;100105.50;1088157;54;19947;-78
2022/05/15 02:27:20;;;;;;;;;;;;;;;14.50;63.59;100096.78;1088533;54;19927;-78
2022/05/15 02:28:22;;;;;;;;;;;;;;;14.51;63.47;100101.16;1088447;54;19933;-79
2022/05/15 02:29:25;;;;;;;;;;;;;;;14.50;63.34;100099.47;1088387;54;19943;-78
2022/05/15 02:30:27;;;;;;;;;;;;;;;14.46;63.83;100100.78;1088426;54;19954;-78
2022/05/15 02:31:30;;;;;;;;;;;;;;;14.49;63.43;100099.63;1088366;54;19927;-78
2022/05/15 02:32:32;;;;;;;;;;;;;;;14.48;63.28;100096.09;1088475;54;19942;-80
2022/05/15 02:33:36;;;;;;;;;;;;;;;14.49;63.22;100092.41;1088521;54;19966;-78
2022/05/15 02:34:37;;;;;;;;;;;;;;;14.48;63.23;100096.09;1088718;39;19997;-79
2022/05/15 02:35:41;;;;;;;;;;;;;;;14.51;63.12;100106.53;1088499;54;19939;-78
2022/05/15 02:36:45;;;;;;;;;;;;;;;14.50;63.26;100098.59;1087999;54;19970;-79
2022/05/15 02:37:47;;;;;;;;;;;;;;;14.46;63.23;100106.19;1088198;54;19943;-78
2022/05/15 02:38:53;;;;;;;;;;;;;;;14.43;63.54;100102.97;1088475;54;19927;-77
2022/05/15 02:39:57;;;;;;;;;;;;;;;14.37;63.62;100107.19;1088448;54;19926;-78
2022/05/15 02:40:58;;;;;;;;;;;;;;;14.29;64.02;100108.03;1088342;54;19926;-78
2022/05/15 02:42:02;;;;;;;;;;;;;;;14.24;63.92;100106.88;1088040;54;20745;-77
2022/05/15 02:43:06;;;;;;;;;;;;;;;14.23;64.00;100111.38;1088069;54;20487;-78
2022/05/15 02:44:07;;;;;;;;;;;;;;;14.20;64.01;100117.13;1088437;54;19943;-78
2022/05/15 02:45:11;;;;;;;;;;;;;;;14.21;63.88;100105.34;1088379;54;19946;-78
2022/05/15 02:46:12;;;;;;;;;;;;;;;14.20;63.81;100101.81;1088371;54;19923;-78
2022/05/15 02:47:16;;;;;;;;;;;;;;;14.22;63.86;100115.06;1088473;54;19989;-78
2022/05/15 02:52:09;;;;;;;;;;;;;;;14.13;64.23;100108.88;1088423;54;19943;-77
2022/05/15 02:53:10;;;;;;;;;;;;;;;14.13;64.49;100099.94;1088492;54;19943;-78
2022/05/15 02:54:16;;;;;;;;;;;;;;;14.15;64.27;100109.56;1088461;54;19962;-80
2022/05/15 02:55:17;;;;;;;;;;;;;;;14.17;63.92;100095.94;1088224;54;19943;-77
2022/05/15 02:56:22;;;;;;;;;;;;;;;14.19;63.98;100105.50;1088388;54;19927;-77
2022/05/15 02:57:23;;;;;;;;;;;;;;;14.18;63.96;100103.81;1088379;54;19943;-79
2022/05/15 02:58:28;;;;;;;;;;;;;;;14.22;63.54;100104.31;1088190;54;19946;-79
2022/05/15 02:59:32;;;;;;;;;;;;;;;14.22;63.81;100101.63;1088029;54;19943;-77
2022/05/15 03:00:34;;;;;;;;;;;;;;;14.16;63.90;100105.84;1088426;54;19973;-77
2022/05/15 03:01:38;;;;;;;;;;;;;;;14.11;64.16;100100.13;1088485;54;19943;-79
2022/05/15 03:02:41;;;;;;;;;;;;;;;14.11;64.48;100102.81;1088448;54;19943;-79
2022/05/15 03:03:44;;;;;;;;;;;;;;;14.08;64.98;100100.44;1088489;54;19943;-80
2022/05/15 03:04:47;;;;;;;;;;;;;;;14.04;65.12;100101.81;1088048;54;20653;-79
2022/05/15 03:05:50;;;;;;;;;;;;;;;14.03;64.76;100102.81;1088423;54;19946;-80
2022/05/15 03:06:51;;;;;;;;;;;;;;;14.02;64.73;100099.28;1088371;54;19942;-80
2022/05/15 03:07:55;;;;;;;;;;;;;;;14.06;64.59;100102.47;1088228;54;20007;-80
2022/05/15 03:08:57;;;;;;;;;;;;;;;14.08;64.25;100105.00;1088307;54;20720;-78
2022/05/15 03:10:03;;;;;;;;;;;;;;;14.06;64.54;100105.16;1090835;39;20569;-80
2022/05/15 03:11:04;;;;;;;;;;;;;;;14.02;64.91;100104.66;1088810;46;19946;-79
2022/05/15 03:12:08;;;;;;;;;;;;;;;13.97;65.22;100107.00;1088356;54;19949;-80
2022/05/15 03:13:10;;;;;;;;;;;;;;;13.98;64.77;100103.31;1088457;54;19941;-79
2022/05/15 03:14:13;;;;;;;;;;;;;;;13.94;65.22;100107.31;1092862;39;20434;-79
2022/05/15 03:15:15;;;;;;;;;;;;;;;13.93;65.18;100104.81;1088117;54;19943;-79
2022/05/15 03:16:20;;;;;;;;;;;;;;;13.93;65.08;100107.50;1088107;54;19989;-82
2022/05/15 03:17:21;;;;;;;;;;;;;;;13.96;64.94;100110.69;1089643;46;19950;-83
2022/05/15 03:18:25;;;;;;;;;;;;;;;13.96;64.71;100109.84;1090006;46;19949;-79
2022/05/15 03:19:26;;;;;;;;;;;;;;;13.99;64.47;100104.13;1088431;54;19943;-78
2022/05/15 03:20:30;;;;;;;;;;;;;;;13.98;64.80;100097.09;1092833;39;20114;-80
2022/05/15 03:21:31;;;;;;;;;;;;;;;14.00;64.41;100105.81;1088419;54;19961;-79
2022/05/15 03:22:35;;;;;;;;;;;;;;;13.97;64.73;100106.16;1088356;54;19942;-80
2022/05/15 03:23:36;;;;;;;;;;;;;;;13.96;64.46;100104.47;1088924;39;20510;-80
2022/05/15 03:24:40;;;;;;;;;;;;;;;13.97;64.23;100103.47;1088385;54;19950;-80
2022/05/15 03:25:43;;;;;;;;;;;;;;;13.95;64.12;100103.63;1088377;54;19931;-79
2022/05/15 03:26:48;;;;;;;;;;;;;;;13.94;64.24;100101.94;1088417;54;19943;-79
2022/05/15 03:27:49;;;;;;;;;;;;;;;13.95;64.09;100109.00;1088356;54;19938;-79
2022/05/15 03:28:54;;;;;;;;;;;;;;;13.95;64.03;100100.94;1094051;39;20549;-78
2022/05/15 03:29:56;;;;;;;;;;;;;;;13.94;63.93;100109.19;1088324;54;19953;-78
2022/05/15 03:31:00;;;;;;;;;;;;;;;13.94;63.69;100101.13;1088438;54;19926;-79
2022/05/15 03:32:01;;;;;;;;;;;;;;;13.96;63.89;100099.09;1088055;54;19947;-78
2022/05/15 03:33:05;;;;;;;;;;;;;;;13.98;64.45;100103.31;1088028;54;19943;-79
2022/05/15 03:34:08;;;;;;;;;;;;;;;13.98;64.53;100099.78;1092961;39;21074;-82
2022/05/15 03:35:14;;;;;;;;;;;;;;;13.97;64.91;100100.78;1088318;54;19943;-82
2022/05/15 03:36:20;;;;;;;;;;;;;;;13.99;64.72;100106.81;1088464;54;19942;-82
2022/05/15 03:37:21;;;;;;;;;;;;;;;14.00;64.75;100105.81;1090268;46;19943;-83
2022/05/15 03:38:25;;;;;;;;;;;;;;;13.98;65.15;100105.16;1088390;54;19939;-82
2022/05/15 03:39:26;;;;;;;;;;;;;;;13.96;65.09;100113.38;1088384;54;19923;-81
2022/05/15 03:40:30;;;;;;;;;;;;;;;13.96;65.10;100109.84;1093392;39;20477;-82
2022/05/15 03:41:34;;;;;;;;;;;;;;;13.88;65.39;100118.72;1088368;54;20555;-82
2022/05/15 03:42:37;;;;;;;;;;;;;;;13.72;66.28;100114.16;1088339;54;19939;-84
2022/05/15 03:43:39;;;;;;;;;;;;;;;13.64;66.40;100123.06;1088332;54;19942;-82
2022/05/15 03:44:42;;;;;;;;;;;;;;;13.60;66.67;100120.84;1088350;54;19926;-83
2022/05/15 03:45:43;;;;;;;;;;;;;;;13.60;67.04;100126.22;1088371;54;19946;-83
2022/05/15 03:46:47;;;;;;;;;;;;;;;13.56;66.88;100121.16;1088427;54;19954;-81
2022/05/15 03:47:53;;;;;;;;;;;;;;;13.63;66.40;100126.75;1088285;54;19939;-83
2022/05/15 03:48:54;;;;;;;;;;;;;;;13.63;66.39;100121.38;1087946;54;19943;-83
2022/05/15 03:50:02;;;;;;;;;;;;;;;13.66;66.20;100121.03;1087826;54;19931;-81
2022/05/15 03:51:04;;;;;;;;;;;;;;;13.69;66.09;100119.88;1088418;54;19943;-80
2022/05/15 03:52:08;;;;;;;;;;;;;;;13.66;66.41;100125.56;1088324;54;19943;-82
2022/05/15 03:53:09;;;;;;;;;;;;;;;13.61;66.60;100123.38;1088141;54;19939;-80
2022/05/15 03:54:14;;;;;;;;;;;;;;;13.64;66.33;100124.88;1088852;46;20037;-80
2022/05/15 03:55:15;;;;;;;;;;;;;;;13.67;66.28;100125.38;1088324;54;19942;-81
2022/05/15 03:56:49;;;;;;;;;;;;;;;13.68;66.28;100127.06;1088406;54;19923;-83
2022/05/15 03:57:45;;;;;;;;;;;;;;;13.73;65.92;100126.59;1088351;54;19999;-80
2022/05/15 03:58:47;;;;;;;;;;;;;;;13.75;65.74;100118.34;1088445;54;19934;-81
2022/05/15 03:59:50;;;;;;;;;;;;;;;13.81;65.29;100126.59;1088302;54;19943;-81
2022/05/15 04:00:51;;;;;;;;;;;;;;;13.87;64.94;100117.91;1088421;54;19942;-82
2022/05/15 04:01:56;;;;;;;;;;;;;;;13.92;64.39;100121.94;1088889;46;19934;-80
2022/05/15 04:02:57;;;;;;;;;;;;;;;13.96;64.39;100125.97;1088343;54;19950;-83
2022/05/15 04:04:01;;;;;;;;;;;;;;;13.92;64.35;100130.00;1088400;54;19939;-81
2022/05/15 04:05:02;;;;;;;;;;;;;;;13.89;64.63;100132.00;1087976;54;19943;-81
2022/05/15 04:06:06;;;;;;;;;;;;;;;13.85;64.91;100127.97;1088125;46;19935;-81
2022/05/15 04:07:07;;;;;;;;;;;;;;;13.91;64.26;100133.69;1089333;46;19934;-80
2022/05/15 04:08:10;;;;;;;;;;;;;;;13.87;64.81;100134.03;1088395;54;19942;-81
2022/05/15 04:09:12;;;;;;;;;;;;;;;13.82;64.84;100132.84;1088385;54;19942;-80
2022/05/15 04:10:17;;;;;;;;;;;;;;;13.78;64.93;100140.38;1088294;54;19934;-81
2022/05/15 04:11:18;;;;;;;;;;;;;;;13.80;65.04;100140.22;1088954;46;19942;-81
2022/05/15 04:12:22;;;;;;;;;;;;;;;13.79;65.10;100138.53;1088331;54;19970;-81
2022/05/15 04:13:26;;;;;;;;;;;;;;;13.76;65.40;100136.16;1088350;54;19954;-83
2022/05/15 04:14:30;;;;;;;;;;;;;;;13.76;65.17;100130.78;1088356;54;20006;-80
2022/05/15 04:15:31;;;;;;;;;;;;;;;13.79;64.79;100136.66;1088749;46;19923;-81
2022/05/15 04:16:35;;;;;;;;;;;;;;;13.80;64.92;100127.59;1088400;54;19986;-80
2022/05/15 04:17:39;;;;;;;;;;;;;;;13.83;64.77;100129.97;1088415;54;19942;-80
2022/05/15 04:18:43;;;;;;;;;;;;;;;13.84;64.76;100134.34;1088392;54;19930;-81
2022/05/15 04:19:49;;;;;;;;;;;;;;;13.83;65.13;100127.28;1088267;54;19943;-81
2022/05/15 04:20:50;;;;;;;;;;;;;;;13.84;65.30;100131.66;1088393;54;19949;-80
2022/05/15 04:21:57;;;;;;;;;;;;;;;13.83;65.43;100127.28;1088297;46;19943;-79
2022/05/15 04:23:00;;;;;;;;;;;;;;;13.79;66.11;100127.78;1088102;54;19942;-80
2022/05/15 04:24:02;;;;;;;;;;;;;;;13.76;65.90;100128.97;1088386;54;19957;-83
2022/05/15 04:25:06;;;;;;;;;;;;;;;13.76;65.81;100133.47;1088262;54;20024;-80
2022/05/15 04:26:07;;;;;;;;;;;;;;;13.72;65.51;100135.66;1088377;54;19926;-81
2022/05/15 04:27:11;;;;;;;;;;;;;;;13.66;66.47;100133.63;1088317;54;19942;-82
2022/05/15 04:28:12;;;;;;;;;;;;;;;13.62;66.61;100134.94;1088356;54;19927;-80
2022/05/15 04:29:19;;;;;;;;;;;;;;;13.54;67.21;100133.91;1088294;54;19939;-81
2022/05/15 04:30:21;;;;;;;;;;;;;;;13.56;66.52;100129.22;1088307;54;19954;-84
2022/05/15 04:31:24;;;;;;;;;;;;;;;13.57;66.75;100135.41;1088362;54;19950;-81
2022/05/15 04:32:26;;;;;;;;;;;;;;;13.61;66.48;100133.25;1088844;47;19942;-80
2022/05/15 04:33:30;;;;;;;;;;;;;;;13.56;67.25;100133.75;1088331;54;19942;-81
2022/05/15 04:34:31;;;;;;;;;;;;;;;13.53;67.07;100132.22;1088317;54;19942;-79
2022/05/15 04:35:35;;;;;;;;;;;;;;;13.51;67.21;100128.03;1088297;54;19965;-80
2022/05/15 04:36:36;;;;;;;;;;;;;;;13.48;67.33;100133.72;1089102;46;19926;-80
2022/05/15 04:37:40;;;;;;;;;;;;;;;13.54;66.91;100127.72;1088267;54;19942;-82
2022/05/15 04:38:41;;;;;;;;;;;;;;;13.60;66.72;100126.22;1087936;54;20019;-82
2022/05/15 04:39:45;;;;;;;;;;;;;;;13.67;66.29;100127.25;1089011;39;20568;-81
2022/05/15 04:40:46;;;;;;;;;;;;;;;13.72;66.14;100135.66;1088409;47;19966;-79
2022/05/15 04:41:50;;;;;;;;;;;;;;;13.75;66.02;100134.47;1088272;54;19939;-80
2022/05/15 04:42:51;;;;;;;;;;;;;;;13.76;65.51;100128.97;1090600;46;19942;-82
2022/05/15 04:43:55;;;;;;;;;;;;;;;13.77;65.66;100122.59;1088305;54;19943;-81
2022/05/15 04:44:59;;;;;;;;;;;;;;;13.71;66.03;100128.59;1088920;46;19922;-81
2022/05/15 04:46:07;;;;;;;;;;;;;;;13.73;65.79;100127.44;1088299;54;19955;-82
2022/05/15 04:47:08;;;;;;;;;;;;;;;13.72;65.77;100124.91;1088347;54;19939;-82
2022/05/15 04:48:12;;;;;;;;;;;;;;;13.70;65.96;100124.22;1088166;54;19938;-80
2022/05/15 04:49:13;;;;;;;;;;;;;;;13.73;65.55;100131.97;1088305;54;19943;-80
2022/05/15 04:50:18;;;;;;;;;;;;;;;13.76;65.63;100126.28;1088191;54;19934;-83
2022/05/15 04:51:19;;;;;;;;;;;;;;;13.75;65.70;100129.97;1088694;47;19939;-80
2022/05/15 04:52:24;;;;;;;;;;;;;;;13.68;66.09;100128.94;1088830;46;19950;-79
2022/05/15 04:53:28;;;;;;;;;;;;;;;13.68;65.89;100123.56;1088098;54;20499;-78
2022/05/15 04:54:32;;;;;;;;;;;;;;;13.70;65.79;100126.91;1087943;54;19938;-76
2022/05/15 04:55:33;;;;;;;;;;;;;;;13.71;65.84;100140.19;1087772;54;19942;-76
2022/05/15 04:56:37;;;;;;;;;;;;;;;13.76;65.41;100136.16;1088222;54;19958;-78
2022/05/15 04:57:38;;;;;;;;;;;;;;;13.81;65.52;100129.28;1089505;46;19963;-78
2022/05/15 04:58:42;;;;;;;;;;;;;;;13.85;65.14;100125.28;1088296;54;19989;-78
2022/05/15 04:59:46;;;;;;;;;;;;;;;13.89;64.92;100120.41;1088317;54;20011;-80
2022/05/15 05:00:54;;;;;;;;;;;;;;;13.89;65.07;100126.63;1088442;54;20528;-82
2022/05/15 05:01:55;;;;;;;;;;;;;;;13.90;65.23;100130.16;1088524;54;19935;-78
2022/05/15 05:05:28;;;;;;;;;;;;;;;13.92;65.03;100132.69;1088680;54;19937;-84
2022/05/15 05:08:02;;;;;;;;;;;;;;;14.06;64.49;100134.75;1087936;54;19991;-83
2022/05/15 05:11:43;;;;;;;;;;;;;;;14.16;64.05;100132.75;1088349;54;20978;-84
2022/05/15 05:29:57;;;;;;;;;;;;;;;14.65;61.14;100152.56;1086909;54;19934;-83
2022/05/15 05:32:16;;;;;;;;;;;;;;;14.69;60.76;100156.66;1088710;54;19927;-85
2022/05/15 05:33:18;;;;;;;;;;;;;;;14.71;60.42;100148.41;1096318;47;19938;-82
2022/05/15 06:19:14;;;;;;;;;;;;;;;15.77;56.89;100150.97;1088550;54;19930;-82
2022/05/15 06:20:17;;;;;;;;;;;;;;;15.81;56.67;100147.75;1088865;54;20003;-82
2022/05/15 06:21:21;;;;;;;;;;;;;;;15.79;56.89;100146.22;1088934;54;19970;-82
2022/05/15 06:40:03;;;;;;;;;;;;;;;16.22;55.54;100139.41;1088796;54;19938;-82
2022/05/15 06:41:09;;;;;;;;;;;;;;;16.19;55.37;100131.72;1088621;54;19966;-79
2022/05/15 06:42:10;;;;;;;;;;;;;;;16.13;55.30;100143.19;1088486;54;19942;-81
2022/05/15 06:43:15;;;;;;;;;;;;;;;16.22;55.79;100149.38;1088406;54;20472;-80
2022/05/15 06:44:17;;;;;;;;;;;;;;;16.21;55.43;100136.91;1088435;54;19967;-80
2022/05/15 06:45:21;;;;;;;;;;;;;;;16.27;55.41;100146.16;1088325;54;20045;-82
2022/05/15 06:46:25;;;;;;;;;;;;;;;16.35;55.56;100138.00;1088470;54;19970;-82
2022/05/15 06:47:29;;;;;;;;;;;;;;;16.40;55.28;100145.53;1088500;54;19950;-84
2022/05/15 06:48:33;;;;;;;;;;;;;;;16.45;55.16;100143.13;1088716;54;19942;-84
2022/05/15 06:49:37;;;;;;;;;;;;;;;16.46;54.83;100134.00;1088607;54;19927;-82
2022/05/15 06:50:38;;;;;;;;;;;;;;;16.50;54.61;100133.47;1088340;54;20574;-84
2022/05/15 06:51:43;;;;;;;;;;;;;;;16.57;54.67;100136.28;1088579;54;19954;-82
2022/05/15 06:52:44;;;;;;;;;;;;;;;16.57;54.25;100130.06;1088612;54;19942;-82
2022/05/15 06:53:49;;;;;;;;;;;;;;;16.60;54.60;100129.69;1088680;54;19954;-83
2022/05/15 06:54:51;;;;;;;;;;;;;;;16.67;54.50;100127.94;1099925;39;20573;-84
2022/05/15 06:58:30;;;;;;;;;;;;;;;16.94;53.72;100131.91;1088839;54;19945;-83
2022/05/15 06:59:32;;;;;;;;;;;;;;;17.02;53.63;100122.03;1088752;54;19966;-81
2022/05/15 07:00:37;;;;;;;;;;;;;;;17.14;53.64;100128.69;1088785;54;19995;-83
2022/05/15 07:01:39;;;;;;;;;;;;;;;17.15;53.24;100123.06;1088626;54;19943;-82